sensor_id;sensor_type;location;lat;lon;timestamp;temperature;humidity
7654;DHT22;3869;48.406;10.774;2023-07-02T00:00:30;18.70;99.90
7654;DHT22;3869;48.406;10.774;2023-07-02T00:05:27;18.80;99.90
7654;DHT22;3869;48.406;10.774;2023-07-02T00:07:55;18.80;99.90
7654;DHT22;3869;48.406;10.774;2023-07-02T00:10:23;18.80;99.90
7654;DHT22;3869;48.406;10.774;2023-07-02T00:12:53;18.70;99.90
7654;DHT22;3869;48.406;10.774;2023-07-02T00:15:21;18.80;99.90
7654;DHT22;3869;48.406;10.774;2023-07-02T00:17:48;18.70;99.90
7654;DHT22;3869;48.406;10.774;2023-07-02T00:20:17;18.70;99.90
7654;DHT22;3869;48.406;10.774;2023-07-02T00:22:46;18.70;99.90
7654;DHT22;3869;48.406;10.774;2023-07-02T00:25:14;18.70;99.90
7654;DHT22;3869;48.406;10.774;2023-07-02T00:27:42;18.70;99.90
7654;DHT22;3869;48.406;10.774;2023-07-02T00:30:12;18.70;99.90
7654;DHT22;3869;48.406;10.774;2023-07-02T00:32:40;18.70;99.90
7654;DHT22;3869;48.406;10.774;2023-07-02T00:35:08;18.70;99.90
7654;DHT22;3869;48.406;10.774;2023-07-02T00:37:36;18.70;99.90
7654;DHT22;3869;48.406;10.774;2023-07-02T00:40:05;18.70;99.90
7654;DHT22;3869;48.406;10.774;2023-07-02T00:42:33;18.60;99.90
7654;DHT22;3869;48.406;10.774;2023-07-02T00:45:02;18.60;99.90
7654;DHT22;3869;48.406;10.774;2023-07-02T00:47:33;18.70;99.90
7654;DHT22;3869;48.406;10.774;2023-07-02T00:50:02;18.60;99.90
7654;DHT22;3869;48.406;10.774;2023-07-02T00:52:30;18.60;99.90
7654;DHT22;3869;48.406;10.774;2023-07-02T00:54:58;18.70;99.90
7654;DHT22;3869;48.406;10.774;2023-07-02T00:57:26;18.70;99.90
7654;DHT22;3869;48.406;10.774;2023-07-02T00:59:57;18.70;99.90
7654;DHT22;3869;48.406;10.774;2023-07-02T01:02:26;18.60;99.90
7654;DHT22;3869;48.406;10.774;2023-07-02T01:04:58;18.60;99.90
7654;DHT22;3869;48.406;10.774;2023-07-02T01:07:27;18.60;99.90
7654;DHT22;3869;48.406;10.774;2023-07-02T01:09:56;18.60;99.90
7654;DHT22;3869;48.406;10.774;2023-07-02T01:12:24;18.60;99.90
7654;DHT22;3869;48.406;10.774;2023-07-02T01:14:56;18.60;99.90
7654;DHT22;3869;48.406;10.774;2023-07-02T01:17:26;18.60;99.90
7654;DHT22;3869;48.406;10.774;2023-07-02T01:19:57;18.60;99.90
7654;DHT22;3869;48.406;10.774;2023-07-02T01:22:27;18.60;99.90
7654;DHT22;3869;48.406;10.774;2023-07-02T01:24:57;18.60;99.90
7654;DHT22;3869;48.406;10.774;2023-07-02T01:27:27;18.60;99.90
7654;DHT22;3869;48.406;10.774;2023-07-02T01:29:56;18.60;99.90
7654;DHT22;3869;48.406;10.774;2023-07-02T01:32:24;18.60;99.90
7654;DHT22;3869;48.406;10.774;2023-07-02T01:34:53;18.60;99.90
7654;DHT22;3869;48.406;10.774;2023-07-02T01:37:22;18.60;99.90
7654;DHT22;3869;48.406;10.774;2023-07-02T01:39:50;18.50;99.90
7654;DHT22;3869;48.406;10.774;2023-07-02T01:42:18;18.50;99.90
7654;DHT22;3869;48.406;10.774;2023-07-02T01:44:48;18.50;99.90
7654;DHT22;3869;48.406;10.774;2023-07-02T01:47:18;18.30;99.90
7654;DHT22;3869;48.406;10.774;2023-07-02T01:49:47;18.30;99.90
7654;DHT22;3869;48.406;10.774;2023-07-02T01:52:15;18.00;99.90
7654;DHT22;3869;48.406;10.774;2023-07-02T01:54:45;17.70;99.90
7654;DHT22;3869;48.406;10.774;2023-07-02T01:59:41;17.60;99.90
7654;DHT22;3869;48.406;10.774;2023-07-02T02:02:09;17.50;99.90
7654;DHT22;3869;48.406;10.774;2023-07-02T02:04:37;17.40;99.90
7654;DHT22;3869;48.406;10.774;2023-07-02T02:07:05;17.40;99.90
7654;DHT22;3869;48.406;10.774;2023-07-02T02:09:33;17.30;99.90
7654;DHT22;3869;48.406;10.774;2023-07-02T02:12:03;17.40;99.90
7654;DHT22;3869;48.406;10.774;2023-07-02T02:14:32;17.40;99.90
7654;DHT22;3869;48.406;10.774;2023-07-02T02:17:00;17.40;99.90
7654;DHT22;3869;48.406;10.774;2023-07-02T02:19:28;17.40;99.90
7654;DHT22;3869;48.406;10.774;2023-07-02T02:21:56;17.30;99.90
7654;DHT22;3869;48.406;10.774;2023-07-02T02:24:24;17.30;99.90
7654;DHT22;3869;48.406;10.774;2023-07-02T02:26:52;17.30;99.90
7654;DHT22;3869;48.406;10.774;2023-07-02T02:29:21;17.40;99.90
7654;DHT22;3869;48.406;10.774;2023-07-02T02:31:49;17.30;99.90
7654;DHT22;3869;48.406;10.774;2023-07-02T02:34:17;17.40;99.90
7654;DHT22;3869;48.406;10.774;2023-07-02T02:36:45;17.40;99.90
7654;DHT22;3869;48.406;10.774;2023-07-02T02:39:14;17.40;99.90
7654;DHT22;3869;48.406;10.774;2023-07-02T02:41:42;17.40;99.90
7654;DHT22;3869;48.406;10.774;2023-07-02T02:44:10;17.40;99.90
7654;DHT22;3869;48.406;10.774;2023-07-02T02:46:39;17.40;99.90
7654;DHT22;3869;48.406;10.774;2023-07-02T02:49:07;17.50;99.90
7654;DHT22;3869;48.406;10.774;2023-07-02T02:51:35;17.50;99.90
7654;DHT22;3869;48.406;10.774;2023-07-02T02:54:03;17.40;99.90
7654;DHT22;3869;48.406;10.774;2023-07-02T02:56:31;17.40;99.90
7654;DHT22;3869;48.406;10.774;2023-07-02T02:58:59;17.30;99.90
7654;DHT22;3869;48.406;10.774;2023-07-02T03:01:27;17.30;99.90
7654;DHT22;3869;48.406;10.774;2023-07-02T03:03:59;17.30;99.90
7654;DHT22;3869;48.406;10.774;2023-07-02T03:06:27;17.30;99.90
7654;DHT22;3869;48.406;10.774;2023-07-02T03:08:55;17.20;99.90
7654;DHT22;3869;48.406;10.774;2023-07-02T03:11:23;17.20;99.90
7654;DHT22;3869;48.406;10.774;2023-07-02T03:13:51;17.30;99.90
7654;DHT22;3869;48.406;10.774;2023-07-02T03:16:19;17.30;99.90
7654;DHT22;3869;48.406;10.774;2023-07-02T03:18:48;17.30;99.90
7654;DHT22;3869;48.406;10.774;2023-07-02T03:21:17;17.30;99.90
7654;DHT22;3869;48.406;10.774;2023-07-02T03:23:45;17.30;99.90
7654;DHT22;3869;48.406;10.774;2023-07-02T03:26:13;17.30;99.90
7654;DHT22;3869;48.406;10.774;2023-07-02T03:28:41;17.30;99.90
7654;DHT22;3869;48.406;10.774;2023-07-02T03:31:09;17.20;99.90
7654;DHT22;3869;48.406;10.774;2023-07-02T03:33:37;17.20;99.90
7654;DHT22;3869;48.406;10.774;2023-07-02T03:36:05;17.20;99.90
7654;DHT22;3869;48.406;10.774;2023-07-02T03:38:35;17.20;99.90
7654;DHT22;3869;48.406;10.774;2023-07-02T03:41:03;17.20;99.90
7654;DHT22;3869;48.406;10.774;2023-07-02T03:43:31;17.20;99.90
7654;DHT22;3869;48.406;10.774;2023-07-02T03:45:59;17.20;99.90
7654;DHT22;3869;48.406;10.774;2023-07-02T03:48:27;17.20;99.90
7654;DHT22;3869;48.406;10.774;2023-07-02T03:50:55;17.20;99.90
7654;DHT22;3869;48.406;10.774;2023-07-02T03:53:23;17.20;99.90
7654;DHT22;3869;48.406;10.774;2023-07-02T03:55:53;17.10;99.90
7654;DHT22;3869;48.406;10.774;2023-07-02T03:58:20;17.20;99.90
7654;DHT22;3869;48.406;10.774;2023-07-02T04:00:48;17.20;99.90
7654;DHT22;3869;48.406;10.774;2023-07-02T04:03:17;17.20;99.90
7654;DHT22;3869;48.406;10.774;2023-07-02T04:05:45;17.20;99.90
7654;DHT22;3869;48.406;10.774;2023-07-02T04:08:15;17.20;99.90
7654;DHT22;3869;48.406;10.774;2023-07-02T04:10:43;17.20;99.90
7654;DHT22;3869;48.406;10.774;2023-07-02T04:13:13;17.20;99.90
7654;DHT22;3869;48.406;10.774;2023-07-02T04:15:41;17.30;99.90
7654;DHT22;3869;48.406;10.774;2023-07-02T04:18:09;17.30;99.90
7654;DHT22;3869;48.406;10.774;2023-07-02T04:20:37;17.30;99.90
7654;DHT22;3869;48.406;10.774;2023-07-02T04:23:05;17.30;99.90
7654;DHT22;3869;48.406;10.774;2023-07-02T04:25:33;17.30;99.90
7654;DHT22;3869;48.406;10.774;2023-07-02T04:28:23;17.30;99.90
7654;DHT22;3869;48.406;10.774;2023-07-02T04:30:51;17.30;99.90
7654;DHT22;3869;48.406;10.774;2023-07-02T04:33:19;17.40;99.90
7654;DHT22;3869;48.406;10.774;2023-07-02T04:35:48;17.40;99.90
7654;DHT22;3869;48.406;10.774;2023-07-02T04:38:16;17.40;99.90
7654;DHT22;3869;48.406;10.774;2023-07-02T04:40:44;17.40;99.90
7654;DHT22;3869;48.406;10.774;2023-07-02T04:43:13;17.30;99.90
7654;DHT22;3869;48.406;10.774;2023-07-02T04:45:46;17.30;99.90
7654;DHT22;3869;48.406;10.774;2023-07-02T04:48:15;17.30;99.90
7654;DHT22;3869;48.406;10.774;2023-07-02T04:50:43;17.30;99.90
7654;DHT22;3869;48.406;10.774;2023-07-02T04:53:11;17.30;99.90
7654;DHT22;3869;48.406;10.774;2023-07-02T04:55:39;17.30;99.90
7654;DHT22;3869;48.406;10.774;2023-07-02T04:58:07;17.30;99.90
7654;DHT22;3869;48.406;10.774;2023-07-02T05:00:35;17.40;99.90
7654;DHT22;3869;48.406;10.774;2023-07-02T05:03:05;17.40;99.90
7654;DHT22;3869;48.406;10.774;2023-07-02T05:05:33;17.40;99.90
7654;DHT22;3869;48.406;10.774;2023-07-02T05:08:01;17.50;99.90
7654;DHT22;3869;48.406;10.774;2023-07-02T05:10:31;17.50;99.90
7654;DHT22;3869;48.406;10.774;2023-07-02T05:12:59;17.50;99.90
7654;DHT22;3869;48.406;10.774;2023-07-02T05:15:27;17.50;99.90
7654;DHT22;3869;48.406;10.774;2023-07-02T05:17:55;17.50;99.90
7654;DHT22;3869;48.406;10.774;2023-07-02T05:20:25;17.50;99.90
7654;DHT22;3869;48.406;10.774;2023-07-02T05:22:53;17.50;99.90
7654;DHT22;3869;48.406;10.774;2023-07-02T05:25:21;17.50;99.90
7654;DHT22;3869;48.406;10.774;2023-07-02T05:27:49;17.40;99.90
7654;DHT22;3869;48.406;10.774;2023-07-02T05:30:17;17.30;99.90
7654;DHT22;3869;48.406;10.774;2023-07-02T05:32:45;17.20;99.90
7654;DHT22;3869;48.406;10.774;2023-07-02T05:35:13;17.20;99.90
7654;DHT22;3869;48.406;10.774;2023-07-02T05:37:42;17.10;99.90
7654;DHT22;3869;48.406;10.774;2023-07-02T05:40:12;17.10;99.90
7654;DHT22;3869;48.406;10.774;2023-07-02T05:42:42;17.20;99.90
7654;DHT22;3869;48.406;10.774;2023-07-02T05:45:10;17.20;99.90
7654;DHT22;3869;48.406;10.774;2023-07-02T05:47:39;17.20;99.90
7654;DHT22;3869;48.406;10.774;2023-07-02T05:50:08;17.20;99.90
7654;DHT22;3869;48.406;10.774;2023-07-02T05:52:36;17.30;99.90
7654;DHT22;3869;48.406;10.774;2023-07-02T05:55:08;17.30;99.90
7654;DHT22;3869;48.406;10.774;2023-07-02T05:57:37;17.20;99.90
7654;DHT22;3869;48.406;10.774;2023-07-02T06:00:06;17.30;99.90
7654;DHT22;3869;48.406;10.774;2023-07-02T06:02:34;17.20;99.90
7654;DHT22;3869;48.406;10.774;2023-07-02T06:05:03;17.20;99.90
7654;DHT22;3869;48.406;10.774;2023-07-02T06:07:31;17.20;99.90
7654;DHT22;3869;48.406;10.774;2023-07-02T06:09:59;17.30;99.90
7654;DHT22;3869;48.406;10.774;2023-07-02T06:12:28;17.30;99.90
7654;DHT22;3869;48.406;10.774;2023-07-02T06:14:56;17.30;99.90
7654;DHT22;3869;48.406;10.774;2023-07-02T06:17:24;17.30;99.90
7654;DHT22;3869;48.406;10.774;2023-07-02T06:19:52;17.30;99.90
7654;DHT22;3869;48.406;10.774;2023-07-02T06:22:20;17.40;99.90
7654;DHT22;3869;48.406;10.774;2023-07-02T06:24:48;17.40;99.90
7654;DHT22;3869;48.406;10.774;2023-07-02T06:27:16;17.40;99.90
7654;DHT22;3869;48.406;10.774;2023-07-02T06:29:46;17.40;99.90
7654;DHT22;3869;48.406;10.774;2023-07-02T06:32:14;17.30;99.90
7654;DHT22;3869;48.406;10.774;2023-07-02T06:34:42;17.30;99.90
7654;DHT22;3869;48.406;10.774;2023-07-02T06:37:09;17.20;99.90
7654;DHT22;3869;48.406;10.774;2023-07-02T06:39:37;17.20;99.90
7654;DHT22;3869;48.406;10.774;2023-07-02T06:42:05;17.20;99.90
7654;DHT22;3869;48.406;10.774;2023-07-02T06:44:33;17.10;99.90
7654;DHT22;3869;48.406;10.774;2023-07-02T06:47:03;17.10;99.90
7654;DHT22;3869;48.406;10.774;2023-07-02T06:49:31;17.10;99.90
7654;DHT22;3869;48.406;10.774;2023-07-02T06:51:59;17.00;99.90
7654;DHT22;3869;48.406;10.774;2023-07-02T06:54:27;17.10;99.90
7654;DHT22;3869;48.406;10.774;2023-07-02T06:56:55;16.90;99.90
7654;DHT22;3869;48.406;10.774;2023-07-02T06:59:23;16.80;99.90
7654;DHT22;3869;48.406;10.774;2023-07-02T07:01:52;16.80;99.90
7654;DHT22;3869;48.406;10.774;2023-07-02T07:04:21;16.80;99.90
7654;DHT22;3869;48.406;10.774;2023-07-02T07:06:50;16.90;99.90
7654;DHT22;3869;48.406;10.774;2023-07-02T07:09:18;17.00;99.90
7654;DHT22;3869;48.406;10.774;2023-07-02T07:11:46;17.10;99.90
7654;DHT22;3869;48.406;10.774;2023-07-02T07:14:14;17.10;99.90
7654;DHT22;3869;48.406;10.774;2023-07-02T07:16:42;17.10;99.90
7654;DHT22;3869;48.406;10.774;2023-07-02T07:19:10;17.20;99.90
7654;DHT22;3869;48.406;10.774;2023-07-02T07:21:39;17.20;99.90
7654;DHT22;3869;48.406;10.774;2023-07-02T07:24:07;17.20;99.90
7654;DHT22;3869;48.406;10.774;2023-07-02T07:26:35;17.30;99.90
7654;DHT22;3869;48.406;10.774;2023-07-02T07:29:04;17.40;99.90
7654;DHT22;3869;48.406;10.774;2023-07-02T07:31:32;17.50;99.90
7654;DHT22;3869;48.406;10.774;2023-07-02T07:34:00;17.50;99.90
7654;DHT22;3869;48.406;10.774;2023-07-02T07:36:28;17.60;99.90
7654;DHT22;3869;48.406;10.774;2023-07-02T07:38:57;17.70;99.90
7654;DHT22;3869;48.406;10.774;2023-07-02T07:41:26;17.80;99.90
7654;DHT22;3869;48.406;10.774;2023-07-02T07:43:54;17.90;99.90
7654;DHT22;3869;48.406;10.774;2023-07-02T07:46:22;17.90;99.90
7654;DHT22;3869;48.406;10.774;2023-07-02T07:48:51;17.90;99.90
7654;DHT22;3869;48.406;10.774;2023-07-02T07:51:19;17.90;99.90
7654;DHT22;3869;48.406;10.774;2023-07-02T07:53:47;17.90;99.90
7654;DHT22;3869;48.406;10.774;2023-07-02T07:56:16;17.90;99.90
7654;DHT22;3869;48.406;10.774;2023-07-02T07:58:44;18.00;99.90
7654;DHT22;3869;48.406;10.774;2023-07-02T08:01:12;18.00;99.90
7654;DHT22;3869;48.406;10.774;2023-07-02T08:03:40;18.10;99.90
7654;DHT22;3869;48.406;10.774;2023-07-02T08:06:08;18.20;99.90
7654;DHT22;3869;48.406;10.774;2023-07-02T08:08:36;18.10;99.90
7654;DHT22;3869;48.406;10.774;2023-07-02T08:11:04;18.00;99.90
7654;DHT22;3869;48.406;10.774;2023-07-02T08:13:33;18.00;99.90
7654;DHT22;3869;48.406;10.774;2023-07-02T08:16:01;18.00;99.90
7654;DHT22;3869;48.406;10.774;2023-07-02T08:18:29;18.10;99.90
7654;DHT22;3869;48.406;10.774;2023-07-02T08:20:57;18.20;99.90
7654;DHT22;3869;48.406;10.774;2023-07-02T08:23:25;18.30;99.90
7654;DHT22;3869;48.406;10.774;2023-07-02T08:25:53;18.30;99.90
7654;DHT22;3869;48.406;10.774;2023-07-02T08:28:21;18.20;99.90
7654;DHT22;3869;48.406;10.774;2023-07-02T08:30:51;18.20;99.90
7654;DHT22;3869;48.406;10.774;2023-07-02T08:33:19;18.30;99.90
7654;DHT22;3869;48.406;10.774;2023-07-02T08:35:47;18.30;99.90
7654;DHT22;3869;48.406;10.774;2023-07-02T08:38:15;18.30;99.90
7654;DHT22;3869;48.406;10.774;2023-07-02T08:40:42;18.30;99.90
7654;DHT22;3869;48.406;10.774;2023-07-02T08:43:10;18.40;99.90
7654;DHT22;3869;48.406;10.774;2023-07-02T08:45:40;18.50;99.90
7654;DHT22;3869;48.406;10.774;2023-07-02T08:48:10;18.50;99.90
7654;DHT22;3869;48.406;10.774;2023-07-02T08:50:39;18.50;99.90
7654;DHT22;3869;48.406;10.774;2023-07-02T08:53:07;18.50;99.90
7654;DHT22;3869;48.406;10.774;2023-07-02T08:55:35;18.50;99.90
7654;DHT22;3869;48.406;10.774;2023-07-02T08:58:03;18.50;99.90
7654;DHT22;3869;48.406;10.774;2023-07-02T09:00:31;18.50;99.90
7654;DHT22;3869;48.406;10.774;2023-07-02T09:03:13;18.60;99.90
7654;DHT22;3869;48.406;10.774;2023-07-02T09:05:49;18.60;99.90
7654;DHT22;3869;48.406;10.774;2023-07-02T09:08:23;18.60;99.90
7654;DHT22;3869;48.406;10.774;2023-07-02T09:10:51;18.80;99.90
7654;DHT22;3869;48.406;10.774;2023-07-02T09:13:19;18.90;99.90
7654;DHT22;3869;48.406;10.774;2023-07-02T09:15:47;19.10;99.90
7654;DHT22;3869;48.406;10.774;2023-07-02T09:18:20;19.10;99.90
7654;DHT22;3869;48.406;10.774;2023-07-02T09:20:51;19.30;99.90
7654;DHT22;3869;48.406;10.774;2023-07-02T09:23:19;19.30;99.90
7654;DHT22;3869;48.406;10.774;2023-07-02T09:25:47;19.40;99.90
7654;DHT22;3869;48.406;10.774;2023-07-02T09:28:17;19.40;99.90
7654;DHT22;3869;48.406;10.774;2023-07-02T09:30:52;19.50;99.90
7654;DHT22;3869;48.406;10.774;2023-07-02T09:33:23;19.60;99.90
7654;DHT22;3869;48.406;10.774;2023-07-02T09:35:52;19.70;99.90
7654;DHT22;3869;48.406;10.774;2023-07-02T09:38:20;19.70;99.90
7654;DHT22;3869;48.406;10.774;2023-07-02T09:40:50;19.60;99.90
7654;DHT22;3869;48.406;10.774;2023-07-02T09:43:19;19.60;99.90
7654;DHT22;3869;48.406;10.774;2023-07-02T09:45:48;19.60;99.90
7654;DHT22;3869;48.406;10.774;2023-07-02T09:48:22;19.70;99.90
7654;DHT22;3869;48.406;10.774;2023-07-02T09:50:52;19.80;99.90
7654;DHT22;3869;48.406;10.774;2023-07-02T09:53:20;19.80;99.90
7654;DHT22;3869;48.406;10.774;2023-07-02T09:55:48;19.80;99.90
7654;DHT22;3869;48.406;10.774;2023-07-02T09:58:16;19.90;99.90
7654;DHT22;3869;48.406;10.774;2023-07-02T10:00:44;20.00;99.90
7654;DHT22;3869;48.406;10.774;2023-07-02T10:03:13;19.90;99.90
7654;DHT22;3869;48.406;10.774;2023-07-02T10:05:42;20.00;99.90
7654;DHT22;3869;48.406;10.774;2023-07-02T10:08:14;20.00;99.90
7654;DHT22;3869;48.406;10.774;2023-07-02T10:10:44;20.00;99.90
7654;DHT22;3869;48.406;10.774;2023-07-02T10:13:13;20.10;99.90
7654;DHT22;3869;48.406;10.774;2023-07-02T10:15:41;20.20;99.90
7654;DHT22;3869;48.406;10.774;2023-07-02T10:18:09;20.30;99.90
7654;DHT22;3869;48.406;10.774;2023-07-02T10:20:39;20.50;99.90
7654;DHT22;3869;48.406;10.774;2023-07-02T10:23:09;20.50;99.90
7654;DHT22;3869;48.406;10.774;2023-07-02T10:25:38;20.40;99.90
7654;DHT22;3869;48.406;10.774;2023-07-02T10:28:17;20.50;99.90
7654;DHT22;3869;48.406;10.774;2023-07-02T10:30:46;20.60;99.90
7654;DHT22;3869;48.406;10.774;2023-07-02T10:33:16;20.70;99.90
7654;DHT22;3869;48.406;10.774;2023-07-02T10:35:45;20.70;99.90
7654;DHT22;3869;48.406;10.774;2023-07-02T10:38:19;20.70;99.90
7654;DHT22;3869;48.406;10.774;2023-07-02T10:40:54;20.60;99.90
7654;DHT22;3869;48.406;10.774;2023-07-02T10:43:26;20.70;99.90
7654;DHT22;3869;48.406;10.774;2023-07-02T10:45:57;20.90;99.90
7654;DHT22;3869;48.406;10.774;2023-07-02T10:48:27;21.10;99.90
7654;DHT22;3869;48.406;10.774;2023-07-02T10:50:55;21.10;99.90
7654;DHT22;3869;48.406;10.774;2023-07-02T10:53:24;21.20;99.90
7654;DHT22;3869;48.406;10.774;2023-07-02T10:55:54;21.10;99.90
7654;DHT22;3869;48.406;10.774;2023-07-02T10:58:24;21.10;99.90
7654;DHT22;3869;48.406;10.774;2023-07-02T11:00:52;21.10;99.90
7654;DHT22;3869;48.406;10.774;2023-07-02T11:03:21;21.20;99.90
7654;DHT22;3869;48.406;10.774;2023-07-02T11:05:50;21.30;99.90
7654;DHT22;3869;48.406;10.774;2023-07-02T11:08:20;21.40;99.90
7654;DHT22;3869;48.406;10.774;2023-07-02T11:11:06;21.50;99.90
7654;DHT22;3869;48.406;10.774;2023-07-02T11:13:44;21.50;99.90
7654;DHT22;3869;48.406;10.774;2023-07-02T11:16:19;21.60;99.90
7654;DHT22;3869;48.406;10.774;2023-07-02T11:18:49;21.60;99.90
7654;DHT22;3869;48.406;10.774;2023-07-02T11:21:17;21.70;99.90
7654;DHT22;3869;48.406;10.774;2023-07-02T11:23:45;21.80;99.90
7654;DHT22;3869;48.406;10.774;2023-07-02T11:26:15;21.90;99.90
7654;DHT22;3869;48.406;10.774;2023-07-02T11:28:50;21.90;99.90
7654;DHT22;3869;48.406;10.774;2023-07-02T11:31:25;22.00;99.90
7654;DHT22;3869;48.406;10.774;2023-07-02T11:33:56;22.20;99.90
7654;DHT22;3869;48.406;10.774;2023-07-02T11:36:25;22.20;99.90
7654;DHT22;3869;48.406;10.774;2023-07-02T11:38:55;22.20;99.90
7654;DHT22;3869;48.406;10.774;2023-07-02T11:41:24;22.10;99.90
7654;DHT22;3869;48.406;10.774;2023-07-02T11:43:52;22.00;99.90
7654;DHT22;3869;48.406;10.774;2023-07-02T11:46:20;21.90;99.90
7654;DHT22;3869;48.406;10.774;2023-07-02T11:48:48;21.80;99.90
7654;DHT22;3869;48.406;10.774;2023-07-02T11:51:17;21.80;99.90
7654;DHT22;3869;48.406;10.774;2023-07-02T11:53:45;21.90;99.90
7654;DHT22;3869;48.406;10.774;2023-07-02T11:56:13;22.00;99.90
7654;DHT22;3869;48.406;10.774;2023-07-02T11:58:42;22.00;99.90
7654;DHT22;3869;48.406;10.774;2023-07-02T12:01:10;22.10;99.90
7654;DHT22;3869;48.406;10.774;2023-07-02T12:03:38;22.10;99.90
7654;DHT22;3869;48.406;10.774;2023-07-02T12:06:06;22.00;99.90
7654;DHT22;3869;48.406;10.774;2023-07-02T12:08:34;22.10;99.90
7654;DHT22;3869;48.406;10.774;2023-07-02T12:11:02;22.10;99.90
7654;DHT22;3869;48.406;10.774;2023-07-02T12:13:30;22.10;99.90
7654;DHT22;3869;48.406;10.774;2023-07-02T12:16:00;22.20;99.90
7654;DHT22;3869;48.406;10.774;2023-07-02T12:18:28;22.20;99.90
7654;DHT22;3869;48.406;10.774;2023-07-02T12:20:56;22.20;99.90
7654;DHT22;3869;48.406;10.774;2023-07-02T12:23:24;22.20;99.90
7654;DHT22;3869;48.406;10.774;2023-07-02T12:25:52;22.10;99.90
7654;DHT22;3869;48.406;10.774;2023-07-02T12:28:20;22.20;99.90
7654;DHT22;3869;48.406;10.774;2023-07-02T12:30:49;22.30;99.90
7654;DHT22;3869;48.406;10.774;2023-07-02T12:33:19;22.20;99.90
7654;DHT22;3869;48.406;10.774;2023-07-02T12:35:47;22.20;99.90
7654;DHT22;3869;48.406;10.774;2023-07-02T12:38:15;22.20;99.90
7654;DHT22;3869;48.406;10.774;2023-07-02T12:40:43;22.10;99.90
7654;DHT22;3869;48.406;10.774;2023-07-02T12:43:11;22.00;99.90
7654;DHT22;3869;48.406;10.774;2023-07-02T12:45:39;22.00;99.90
7654;DHT22;3869;48.406;10.774;2023-07-02T12:48:07;22.00;99.90
7654;DHT22;3869;48.406;10.774;2023-07-02T12:50:38;22.00;99.90
7654;DHT22;3869;48.406;10.774;2023-07-02T12:53:06;21.90;99.90
7654;DHT22;3869;48.406;10.774;2023-07-02T12:55:34;21.90;99.90
7654;DHT22;3869;48.406;10.774;2023-07-02T12:58:02;22.00;99.90
7654;DHT22;3869;48.406;10.774;2023-07-02T13:00:30;22.00;99.90
7654;DHT22;3869;48.406;10.774;2023-07-02T13:02:58;22.00;99.90
7654;DHT22;3869;48.406;10.774;2023-07-02T13:05:31;22.10;99.90
7654;DHT22;3869;48.406;10.774;2023-07-02T13:08:01;22.20;99.90
7654;DHT22;3869;48.406;10.774;2023-07-02T13:10:29;22.30;99.90
7654;DHT22;3869;48.406;10.774;2023-07-02T13:12:58;22.30;99.90
7654;DHT22;3869;48.406;10.774;2023-07-02T13:15:43;22.40;99.90
7654;DHT22;3869;48.406;10.774;2023-07-02T13:18:12;22.30;99.90
7654;DHT22;3869;48.406;10.774;2023-07-02T13:20:40;22.30;99.80
7654;DHT22;3869;48.406;10.774;2023-07-02T13:23:09;22.30;99.70
7654;DHT22;3869;48.406;10.774;2023-07-02T13:25:37;22.30;99.80
7654;DHT22;3869;48.406;10.774;2023-07-02T13:28:05;22.30;99.90
7654;DHT22;3869;48.406;10.774;2023-07-02T13:30:33;22.30;99.90
7654;DHT22;3869;48.406;10.774;2023-07-02T13:33:01;22.30;99.90
7654;DHT22;3869;48.406;10.774;2023-07-02T13:35:29;22.30;99.80
7654;DHT22;3869;48.406;10.774;2023-07-02T13:37:58;22.40;99.70
7654;DHT22;3869;48.406;10.774;2023-07-02T13:40:27;22.40;99.90
7654;DHT22;3869;48.406;10.774;2023-07-02T13:42:55;22.40;99.90
7654;DHT22;3869;48.406;10.774;2023-07-02T13:45:23;22.40;99.70
7654;DHT22;3869;48.406;10.774;2023-07-02T13:47:51;22.40;99.60
7654;DHT22;3869;48.406;10.774;2023-07-02T13:50:19;22.50;99.90
7654;DHT22;3869;48.406;10.774;2023-07-02T13:52:48;22.50;99.90
7654;DHT22;3869;48.406;10.774;2023-07-02T13:55:16;22.60;99.90
7654;DHT22;3869;48.406;10.774;2023-07-02T13:57:46;22.60;99.90
7654;DHT22;3869;48.406;10.774;2023-07-02T14:00:16;22.60;99.90
7654;DHT22;3869;48.406;10.774;2023-07-02T14:02:44;22.60;99.90
7654;DHT22;3869;48.406;10.774;2023-07-02T14:05:12;22.60;99.90
7654;DHT22;3869;48.406;10.774;2023-07-02T14:07:40;22.60;99.90
7654;DHT22;3869;48.406;10.774;2023-07-02T14:10:09;22.60;99.90
7654;DHT22;3869;48.406;10.774;2023-07-02T14:12:39;22.50;99.90
7654;DHT22;3869;48.406;10.774;2023-07-02T14:15:08;22.60;99.90
7654;DHT22;3869;48.406;10.774;2023-07-02T14:17:38;22.70;99.90
7654;DHT22;3869;48.406;10.774;2023-07-02T14:20:07;22.70;99.90
7654;DHT22;3869;48.406;10.774;2023-07-02T14:22:35;22.60;99.90
7654;DHT22;3869;48.406;10.774;2023-07-02T14:25:04;22.60;99.90
7654;DHT22;3869;48.406;10.774;2023-07-02T14:27:32;22.60;99.90
7654;DHT22;3869;48.406;10.774;2023-07-02T14:30:00;22.60;99.90
7654;DHT22;3869;48.406;10.774;2023-07-02T14:32:31;22.60;99.90
7654;DHT22;3869;48.406;10.774;2023-07-02T14:35:00;22.50;99.90
7654;DHT22;3869;48.406;10.774;2023-07-02T14:37:29;22.50;99.90
7654;DHT22;3869;48.406;10.774;2023-07-02T14:39:57;22.60;99.90
7654;DHT22;3869;48.406;10.774;2023-07-02T14:42:33;22.70;99.90
7654;DHT22;3869;48.406;10.774;2023-07-02T14:45:01;22.90;99.90
7654;DHT22;3869;48.406;10.774;2023-07-02T14:47:29;23.00;99.90
7654;DHT22;3869;48.406;10.774;2023-07-02T14:49:57;23.10;99.90
7654;DHT22;3869;48.406;10.774;2023-07-02T14:52:26;23.30;99.90
7654;DHT22;3869;48.406;10.774;2023-07-02T14:54:54;23.30;99.90
7654;DHT22;3869;48.406;10.774;2023-07-02T14:57:22;23.50;99.90
7654;DHT22;3869;48.406;10.774;2023-07-02T14:59:51;23.60;99.90
7654;DHT22;3869;48.406;10.774;2023-07-02T15:02:19;23.70;99.90
7654;DHT22;3869;48.406;10.774;2023-07-02T15:04:47;23.70;99.90
7654;DHT22;3869;48.406;10.774;2023-07-02T15:07:15;23.80;99.90
7654;DHT22;3869;48.406;10.774;2023-07-02T15:09:45;23.80;99.90
7654;DHT22;3869;48.406;10.774;2023-07-02T15:12:13;23.80;99.90
7654;DHT22;3869;48.406;10.774;2023-07-02T15:14:41;23.80;99.90
7654;DHT22;3869;48.406;10.774;2023-07-02T15:17:09;23.80;99.90
7654;DHT22;3869;48.406;10.774;2023-07-02T15:19:37;23.80;99.90
7654;DHT22;3869;48.406;10.774;2023-07-02T15:22:05;23.90;99.80
7654;DHT22;3869;48.406;10.774;2023-07-02T15:24:33;23.90;99.70
7654;DHT22;3869;48.406;10.774;2023-07-02T15:27:05;23.90;98.30
7654;DHT22;3869;48.406;10.774;2023-07-02T15:29:34;23.90;98.20
7654;DHT22;3869;48.406;10.774;2023-07-02T15:32:02;23.90;98.10
7654;DHT22;3869;48.406;10.774;2023-07-02T15:34:30;23.90;98.00
7654;DHT22;3869;48.406;10.774;2023-07-02T15:36:58;23.90;97.80
7654;DHT22;3869;48.406;10.774;2023-07-02T15:39:26;23.90;97.90
7654;DHT22;3869;48.406;10.774;2023-07-02T15:41:59;23.80;97.80
7654;DHT22;3869;48.406;10.774;2023-07-02T15:44:28;23.80;97.80
7654;DHT22;3869;48.406;10.774;2023-07-02T15:46:56;23.70;97.80
7654;DHT22;3869;48.406;10.774;2023-07-02T15:49:25;23.70;97.70
7654;DHT22;3869;48.406;10.774;2023-07-02T15:51:54;23.70;97.60
7654;DHT22;3869;48.406;10.774;2023-07-02T15:54:22;23.70;98.20
7654;DHT22;3869;48.406;10.774;2023-07-02T15:56:50;23.70;98.10
7654;DHT22;3869;48.406;10.774;2023-07-02T15:59:18;23.60;97.80